Time;durP1;ratioP1;P1;durP2;ratioP2;P2;SDS_P1;SDS_P2;PMS_P1;PMS_P2;Temp;Humidity;BMP_temperature;BMP_pressure;BME280_temperature;BME280_humidity;BME280_pressure;Samples;Min_cycle;Max_cycle;Signal;HPM_P1;HPM_P2
2022/03/06 00:01:58;;;;;;;29.75;18.75;;;2.70;99.80;;;;;;5079824;28;20488;-40
2022/03/06 00:04:23;;;;;;;30.10;18.38;;;2.70;99.80;;;;;;5080529;28;20047;-41
2022/03/06 00:06:49;;;;;;;30.00;17.98;;;2.70;99.90;;;;;;5082578;28;20063;-40
2022/03/06 00:09:14;;;;;;;30.33;17.75;;;2.70;99.90;;;;;;5077544;28;20039;-41
2022/03/06 00:11:40;;;;;;;30.13;18.95;;;2.60;99.90;;;;;;5084702;28;20365;-42
2022/03/06 00:14:05;;;;;;;30.60;19.02;;;2.60;99.90;;;;;;5075272;28;20031;-41
2022/03/06 00:16:31;;;;;;;30.63;17.73;;;2.50;99.90;;;;;;5084625;28;20020;-41
2022/03/06 00:18:57;;;;;;;29.85;18.08;;;2.50;99.90;;;;;;5075269;28;20668;-41
2022/03/06 00:21:22;;;;;;;33.17;18.75;;;2.50;99.90;;;;;;5087177;28;20028;-41
2022/03/06 00:23:48;;;;;;;32.10;19.13;;;2.40;99.90;;;;;;5072247;28;20796;-43
2022/03/06 00:26:13;;;;;;;30.90;18.90;;;2.40;99.90;;;;;;5086589;28;20016;-41
2022/03/06 00:28:39;;;;;;;29.95;18.45;;;2.30;99.90;;;;;;5072823;28;20028;-41
2022/03/06 00:31:05;;;;;;;34.92;19.80;;;2.30;99.90;;;;;;5086116;28;20024;-41
2022/03/06 00:33:31;;;;;;;31.38;18.83;;;2.20;99.90;;;;;;5075571;28;20032;-40
2022/03/06 00:35:57;;;;;;;31.13;17.50;;;2.20;99.90;;;;;;5083357;28;20090;-41
2022/03/06 00:38:23;;;;;;;29.30;18.67;;;2.20;99.90;;;;;;5078276;28;20058;-40
2022/03/06 00:40:48;;;;;;;35.55;19.50;;;2.20;99.90;;;;;;5080934;28;20024;-39
2022/03/06 00:43:15;;;;;;;29.67;18.13;;;2.10;99.90;;;;;;5080152;28;20012;-39
2022/03/06 00:45:41;;;;;;;26.85;17.23;;;2.10;99.90;;;;;;5078821;28;20032;-40
2022/03/06 00:48:08;;;;;;;31.38;18.38;;;2.10;99.90;;;;;;5082556;28;20398;-41
2022/03/06 00:50:37;;;;;;;30.90;18.08;;;2.00;99.90;;;;;;5074911;28;20127;-41
2022/03/06 00:53:03;;;;;;;27.33;17.25;;;2.00;99.90;;;;;;5083918;28;20037;-41
2022/03/06 00:55:30;;;;;;;26.55;16.50;;;2.00;99.90;;;;;;5074363;28;20048;-41
2022/03/06 00:58:05;;;;;;;29.35;17.95;;;1.90;99.90;;;;;;5083998;28;20035;-42
2022/03/06 01:00:34;;;;;;;30.10;18.38;;;2.00;99.90;;;;;;5074670;28;20039;-42
2022/03/06 01:03:00;;;;;;;30.92;19.00;;;1.90;99.90;;;;;;5084788;28;20057;-42
2022/03/06 01:05:26;;;;;;;27.70;17.88;;;1.90;99.90;;;;;;5076306;28;20025;-40
2022/03/06 01:07:52;;;;;;;32.28;18.92;;;1.90;99.90;;;;;;5065744;28;20039;-41
2022/03/06 01:10:17;;;;;;;27.73;17.38;;;2.00;99.90;;;;;;5077853;28;20429;-43
2022/03/06 01:12:43;;;;;;;27.98;17.60;;;2.00;99.90;;;;;;5064062;28;20024;-41
2022/03/06 01:15:09;;;;;;;25.50;15.90;;;1.90;99.90;;;;;;5078434;28;20039;-41
2022/03/06 01:17:34;;;;;;;28.88;18.30;;;1.90;99.90;;;;;;5065034;28;20054;-41
2022/03/06 01:20:00;;;;;;;25.02;16.27;;;1.90;99.90;;;;;;5074649;28;20478;-41
2022/03/06 01:22:25;;;;;;;24.88;15.63;;;1.90;99.90;;;;;;5068556;28;20024;-42
2022/03/06 01:24:51;;;;;;;26.23;16.60;;;1.90;99.90;;;;;;5071628;28;20478;-41
2022/03/06 01:27:16;;;;;;;23.73;15.05;;;1.90;99.90;;;;;;5070118;28;20118;-40
2022/03/06 01:29:44;;;;;;;24.48;15.05;;;1.90;99.90;;;;;;5069720;28;20024;-41
2022/03/06 01:32:10;;;;;;;28.50;16.90;;;1.90;99.90;;;;;;5072573;28;20102;-41
2022/03/06 01:34:35;;;;;;;28.60;18.42;;;1.80;99.90;;;;;;5066488;28;20033;-41
2022/03/06 01:37:01;;;;;;;29.35;18.30;;;1.80;99.90;;;;;;5075931;28;20035;-42
2022/03/06 01:39:26;;;;;;;26.48;16.90;;;1.80;99.90;;;;;;5065730;28;20028;-42
2022/03/06 01:41:52;;;;;;;24.75;16.73;;;1.80;99.90;;;;;;5075524;28;20032;-42
2022/03/06 01:44:17;;;;;;;27.02;16.02;;;1.80;99.90;;;;;;5066283;28;20025;-39
2022/03/06 01:46:45;;;;;;;29.23;17.17;;;1.80;99.90;;;;;;5075768;28;20042;-40
2022/03/06 01:49:11;;;;;;;30.00;17.98;;;1.70;99.90;;;;;;5065475;28;20082;-41
2022/03/06 01:51:37;;;;;;;25.00;16.15;;;1.70;99.90;;;;;;5077422;28;20036;-41
2022/03/06 01:54:03;;;;;;;25.00;16.63;;;1.70;99.90;;;;;;5064929;28;20021;-38
2022/03/06 01:56:28;;;;;;;22.75;14.85;;;1.70;99.90;;;;;;5077127;28;20403;-42
2022/03/06 01:58:54;;;;;;;24.98;16.40;;;1.60;99.90;;;;;;5065122;28;20059;-42
2022/03/06 02:01:20;;;;;;;25.60;16.63;;;1.60;99.90;;;;;;5073831;28;20065;-40
2022/03/06 02:03:46;;;;;;;25.60;17.00;;;1.60;99.90;;;;;;5069704;28;20028;-41
2022/03/06 02:06:11;;;;;;;25.48;17.45;;;1.60;99.90;;;;;;5075737;28;20463;-41
2022/03/06 02:08:37;;;;;;;24.25;16.55;;;1.50;99.90;;;;;;5073495;28;20148;-42
2022/03/06 02:11:03;;;;;;;26.38;16.45;;;1.50;99.90;;;;;;5073066;28;20090;-39
2022/03/06 02:13:28;;;;;;;25.70;16.48;;;1.50;99.90;;;;;;5076976;28;20025;-42
2022/03/06 02:15:55;;;;;;;25.63;16.30;;;1.50;99.90;;;;;;5069638;28;20066;-42
2022/03/06 02:18:20;;;;;;;26.60;15.82;;;1.40;99.90;;;;;;5079736;28;20048;-42
2022/03/06 02:20:47;;;;;;;27.33;18.42;;;1.40;99.90;;;;;;5069215;28;20450;-42
2022/03/06 02:23:13;;;;;;;25.40;16.05;;;1.40;99.90;;;;;;5079217;28;20441;-42
2022/03/06 02:25:39;;;;;;;26.95;16.65;;;1.40;99.90;;;;;;5068186;28;20032;-41
2022/03/06 02:28:07;;;;;;;25.55;16.60;;;1.40;99.90;;;;;;5080661;28;20136;-41
2022/03/06 02:30:37;;;;;;;27.92;17.65;;;1.40;99.90;;;;;;5067344;28;20094;-41
2022/03/06 02:33:05;;;;;;;27.20;16.95;;;1.30;99.90;;;;;;5081165;28;20021;-41
2022/03/06 02:35:31;;;;;;;27.75;17.05;;;1.30;99.90;;;;;;5067427;28;20490;-43
2022/03/06 02:37:56;;;;;;;28.27;18.27;;;1.30;99.90;;;;;;5080708;28;20464;-40
2022/03/06 02:40:22;;;;;;;23.05;15.93;;;1.30;99.90;;;;;;5068769;28;20020;-42
2022/03/06 02:42:51;;;;;;;24.63;16.98;;;1.30;99.90;;;;;;5077214;28;20085;-42
2022/03/06 02:45:25;;;;;;;26.52;16.83;;;1.30;99.90;;;;;;5070671;28;20027;-42
2022/03/06 02:47:53;;;;;;;24.73;16.10;;;1.30;99.90;;;;;;5076697;28;20115;-40
2022/03/06 02:50:22;;;;;;;27.10;17.05;;;1.30;99.90;;;;;;5068390;28;20098;-42
2022/03/06 02:52:48;;;;;;;23.95;16.77;;;1.20;99.90;;;;;;5074661;28;20031;-42
2022/03/06 02:55:15;;;;;;;24.90;17.00;;;1.20;99.90;;;;;;5073292;28;20659;-42
2022/03/06 02:57:41;;;;;;;25.73;17.05;;;1.20;99.90;;;;;;5071481;28;20028;-42
2022/03/06 03:00:10;;;;;;;23.95;17.15;;;1.20;99.90;;;;;;5075422;28;20028;-42
2022/03/06 03:02:37;;;;;;;26.10;17.88;;;1.20;99.90;;;;;;5069963;28;20021;-40
2022/03/06 03:05:07;;;;;;;27.98;17.40;;;1.10;99.90;;;;;;5077010;28;20017;-40
2022/03/06 03:07:33;;;;;;;23.77;15.30;;;1.10;99.90;;;;;;5068318;28;20032;-41
2022/03/06 03:09:58;;;;;;;26.55;17.40;;;1.00;99.90;;;;;;5079411;28;20024;-40
2022/03/06 03:12:24;;;;;;;28.90;18.67;;;1.00;99.90;;;;;;5068411;28;20025;-42
2022/03/06 03:14:52;;;;;;;25.42;16.80;;;1.00;99.90;;;;;;5076944;28;20380;-42
2022/03/06 03:17:18;;;;;;;26.67;17.02;;;1.00;99.90;;;;;;5067928;28;20032;-43
2022/03/06 03:19:43;;;;;;;25.27;16.23;;;0.90;99.90;;;;;;5078797;28;20103;-40
2022/03/06 03:22:09;;;;;;;22.85;15.90;;;0.90;99.90;;;;;;5067686;28;20036;-42
2022/03/06 03:24:34;;;;;;;22.45;15.75;;;0.90;99.90;;;;;;5079807;28;20028;-42
2022/03/06 03:27:00;;;;;;;27.27;17.45;;;0.90;99.90;;;;;;5066846;28;20047;-42
2022/03/06 03:29:25;;;;;;;26.25;17.38;;;0.90;99.90;;;;;;5078096;28;20101;-42
2022/03/06 03:31:51;;;;;;;26.02;16.73;;;0.90;99.90;;;;;;5068186;28;20393;-42
2022/03/06 03:34:17;;;;;;;22.83;16.33;;;0.90;99.90;;;;;;5075407;28;20548;-41
2022/03/06 03:36:43;;;;;;;22.95;15.95;;;0.80;99.90;;;;;;5071472;28;20033;-42
2022/03/06 03:39:09;;;;;;;22.25;15.68;;;0.80;99.90;;;;;;5071735;28;20024;-43
2022/03/06 03:41:34;;;;;;;21.60;14.93;;;0.80;99.90;;;;;;5073670;28;20028;-42
2022/03/06 03:44:01;;;;;;;23.02;15.38;;;0.70;99.90;;;;;;5070120;28;20048;-42
2022/03/06 03:46:27;;;;;;;24.52;17.10;;;0.70;99.90;;;;;;5075747;28;20035;-41
2022/03/06 03:48:52;;;;;;;24.95;15.85;;;0.70;99.90;;;;;;5071363;28;20024;-41
2022/03/06 03:51:19;;;;;;;25.42;16.52;;;0.60;99.90;;;;;;5075978;28;20031;-40
2022/03/06 03:53:44;;;;;;;25.38;16.58;;;0.60;99.90;;;;;;5084719;28;20069;-42
2022/03/06 03:56:13;;;;;;;23.27;15.77;;;0.60;99.90;;;;;;5075470;28;20063;-40
2022/03/06 03:58:38;;;;;;;25.05;16.27;;;0.60;99.90;;;;;;5086981;28;20016;-42
2022/03/06 04:01:04;;;;;;;21.45;14.85;;;0.50;99.90;;;;;;5073394;28;20092;-41
2022/03/06 04:03:30;;;;;;;25.02;15.93;;;0.50;99.90;;;;;;5086698;28;20043;-41
2022/03/06 04:05:56;;;;;;;20.08;14.45;;;0.50;99.90;;;;;;5073911;28;20028;-43
2022/03/06 04:08:21;;;;;;;22.40;14.63;;;0.50;99.90;;;;;;5086884;28;20308;-40
2022/03/06 04:10:47;;;;;;;21.65;14.65;;;0.50;99.90;;;;;;5075246;28;20823;-42
2022/03/06 04:13:13;;;;;;;24.05;16.08;;;0.40;99.90;;;;;;5084897;28;20032;-42
2022/03/06 04:15:38;;;;;;;22.63;15.25;;;0.40;99.90;;;;;;5077403;28;20031;-42
2022/03/06 04:18:04;;;;;;;24.55;15.63;;;0.40;99.90;;;;;;5082167;28;20028;-43
2022/03/06 04:20:30;;;;;;;21.58;14.77;;;0.40;99.90;;;;;;5081147;28;20376;-41
2022/03/06 04:22:56;;;;;;;23.85;16.20;;;0.40;99.90;;;;;;5078511;28;20483;-42
2022/03/06 04:25:22;;;;;;;22.98;15.70;;;0.40;99.90;;;;;;5083341;28;20035;-41
2022/03/06 04:27:47;;;;;;;22.50;15.52;;;0.40;99.90;;;;;;5075581;28;20028;-41
2022/03/06 04:30:13;;;;;;;20.70;14.68;;;0.40;99.90;;;;;;5084370;28;20016;-41
2022/03/06 04:32:39;;;;;;;20.45;14.30;;;0.30;99.90;;;;;;5074633;28;20387;-42
2022/03/06 04:35:08;;;;;;;19.42;14.65;;;0.30;99.90;;;;;;5084768;28;20467;-41
2022/03/06 04:37:34;;;;;;;22.50;15.38;;;0.30;99.90;;;;;;5076794;28;20025;-40
2022/03/06 04:39:59;;;;;;;22.58;15.13;;;0.30;99.90;;;;;;5066065;28;20024;-41
2022/03/06 04:42:25;;;;;;;21.05;14.73;;;0.30;99.90;;;;;;5078156;28;20029;-41
2022/03/06 04:44:50;;;;;;;20.48;14.00;;;0.30;99.90;;;;;;5065523;28;20103;-41
2022/03/06 04:47:16;;;;;;;25.42;16.80;;;0.30;99.90;;;;;;5078549;28;20040;-41
2022/03/06 04:49:42;;;;;;;23.00;16.30;;;0.30;99.90;;;;;;5065008;28;20016;-42
2022/03/06 04:52:07;;;;;;;22.23;15.27;;;0.30;99.90;;;;;;5076151;28;20063;-40
2022/03/06 04:54:34;;;;;;;23.50;16.38;;;0.30;99.90;;;;;;5067193;28;20059;-41
2022/03/06 04:57:00;;;;;;;28.13;17.55;;;0.20;99.90;;;;;;5073184;28;20032;-40
2022/03/06 04:59:26;;;;;;;23.38;15.63;;;0.20;99.90;;;;;;5070655;28;20021;-41
2022/03/06 05:01:52;;;;;;;23.40;15.02;;;0.20;99.90;;;;;;5070678;28;20028;-41
2022/03/06 05:04:17;;;;;;;22.15;15.90;;;0.20;99.90;;;;;;5072951;28;20016;-41
2022/03/06 05:06:43;;;;;;;21.55;15.55;;;0.20;99.90;;;;;;5067264;28;20506;-42
2022/03/06 05:09:08;;;;;;;25.48;16.08;;;0.20;99.90;;;;;;5075933;28;20037;-41
2022/03/06 05:11:34;;;;;;;24.85;16.02;;;0.20;99.90;;;;;;5065591;28;20024;-42
2022/03/06 05:13:59;;;;;;;20.70;15.25;;;0.20;99.90;;;;;;5077230;28;20028;-41
2022/03/06 05:16:25;;;;;;;21.73;14.60;;;0.20;99.90;;;;;;5066083;28;20025;-41
2022/03/06 05:18:50;;;;;;;23.75;15.15;;;0.20;99.90;;;;;;5075802;28;20475;-40
2022/03/06 05:21:16;;;;;;;23.60;15.18;;;0.20;99.90;;;;;;5066179;28;20035;-41
2022/03/06 05:23:41;;;;;;;22.30;15.23;;;0.20;99.90;;;;;;5077729;28;20072;-40
2022/03/06 05:26:07;;;;;;;23.52;15.93;;;0.20;99.90;;;;;;5065082;28;20480;-40
2022/03/06 05:28:33;;;;;;;23.67;15.15;;;0.20;99.90;;;;;;5076516;28;20221;-40
2022/03/06 05:30:58;;;;;;;24.98;17.10;;;0.20;99.90;;;;;;5066607;28;20099;-42
2022/03/06 05:33:24;;;;;;;21.25;15.13;;;0.20;99.90;;;;;;5073930;28;20028;-39
2022/03/06 05:35:50;;;;;;;23.42;16.27;;;0.10;99.90;;;;;;5068276;28;20029;-43
2022/03/06 05:38:15;;;;;;;22.13;16.10;;;0.20;99.90;;;;;;5072962;28;20034;-41
2022/03/06 05:40:41;;;;;;;22.30;15.80;;;0.10;99.90;;;;;;5074063;28;20020;-41
2022/03/06 05:43:07;;;;;;;22.10;15.43;;;0.10;99.90;;;;;;5073626;28;20055;-41
2022/03/06 05:45:32;;;;;;;25.52;15.98;;;0.10;99.90;;;;;;5076814;28;20021;-43
2022/03/06 05:47:58;;;;;;;21.42;14.02;;;0.10;99.90;;;;;;5070567;28;20056;-40
2022/03/06 05:50:24;;;;;;;20.20;14.60;;;0.10;99.90;;;;;;5081094;28;20058;-40
2022/03/06 05:52:50;;;;;;;24.33;16.00;;;0.10;99.90;;;;;;5069043;28;20391;-42
2022/03/06 05:55:16;;;;;;;21.50;14.90;;;0.00;99.90;;;;;;5080008;28;20087;-41
2022/03/06 05:57:41;;;;;;;21.42;15.50;;;0.00;99.90;;;;;;5068933;28;20024;-40
2022/03/06 06:00:08;;;;;;;20.58;14.43;;;0.00;99.90;;;;;;5080630;28;20032;-40
2022/03/06 06:02:38;;;;;;;20.58;13.95;;;0.00;99.90;;;;;;5068460;28;20020;-40
2022/03/06 06:05:05;;;;;;;22.63;16.38;;;0.00;99.90;;;;;;5081808;28;20513;-38
2022/03/06 06:07:31;;;;;;;22.02;15.13;;;0.00;99.90;;;;;;5067700;28;20124;-41
2022/03/06 06:09:57;;;;;;;24.25;16.38;;;0.00;99.90;;;;;;5081349;28;20032;-41
2022/03/06 06:12:22;;;;;;;24.65;16.52;;;0.00;99.90;;;;;;5069553;28;20127;-39
2022/03/06 06:14:51;;;;;;;21.42;15.43;;;0.00;99.90;;;;;;5077578;28;20581;-42
2022/03/06 06:17:17;;;;;;;21.67;15.32;;;0.00;99.90;;;;;;5071191;28;20059;-41
2022/03/06 06:19:42;;;;;;;23.15;15.38;;;-0.10;99.90;;;;;;5075209;28;20355;-40
2022/03/06 06:22:08;;;;;;;22.33;15.27;;;-0.10;99.90;;;;;;5073434;28;20108;-39
2022/03/06 06:24:34;;;;;;;25.83;17.23;;;-0.10;99.90;;;;;;5072469;28;20031;-40
2022/03/06 06:26:59;;;;;;;24.25;16.92;;;-0.10;99.90;;;;;;5076440;28;20036;-41
2022/03/06 06:29:25;;;;;;;29.15;19.33;;;-0.10;99.90;;;;;;5069885;28;20444;-42
2022/03/06 06:31:54;;;;;;;23.58;17.70;;;-0.10;99.90;;;;;;5078841;28;20517;-43
2022/03/06 06:34:20;;;;;;;28.75;19.40;;;-0.10;99.90;;;;;;5070543;28;20024;-41
2022/03/06 06:36:46;;;;;;;27.05;18.45;;;-0.10;99.90;;;;;;5079040;28;20036;-42
2022/03/06 06:39:12;;;;;;;32.42;20.98;;;-0.10;99.90;;;;;;5069674;28;20098;-39
2022/03/06 06:41:46;;;;;;;24.23;18.13;;;-0.20;99.90;;;;;;5079058;28;20028;-41
2022/03/06 06:44:12;;;;;;;27.23;18.92;;;-0.20;99.90;;;;;;5068755;28;20028;-41
2022/03/06 06:46:37;;;;;;;29.17;20.33;;;-0.20;99.90;;;;;;5080339;28;20090;-35
2022/03/06 06:49:03;;;;;;;28.23;19.00;;;-0.20;99.90;;;;;;5067954;28;20035;-42
2022/03/06 06:51:30;;;;;;;22.98;17.05;;;-0.10;99.90;;;;;;5080925;28;20097;-42
2022/03/06 06:53:56;;;;;;;24.13;17.92;;;-0.20;99.90;;;;;;5067854;28;20028;-42
2022/03/06 06:56:21;;;;;;;24.92;17.83;;;-0.10;99.90;;;;;;5078363;28;20052;-41
2022/03/06 06:58:47;;;;;;;25.48;17.40;;;-0.10;99.90;;;;;;5069070;28;20021;-41
2022/03/06 07:01:17;;;;;;;29.70;18.63;;;-0.10;99.90;;;;;;5076709;28;20502;-44
2022/03/06 07:03:42;;;;;;;25.35;18.90;;;-0.10;99.90;;;;;;5070203;28;20036;-42
2022/03/06 07:06:08;;;;;;;25.23;17.75;;;0.00;99.90;;;;;;5074096;28;20066;-42
2022/03/06 07:08:33;;;;;;;26.70;17.30;;;-0.10;99.90;;;;;;5074454;28;20086;-41
2022/03/06 07:10:59;;;;;;;28.67;20.73;;;0.00;99.90;;;;;;5070603;28;20021;-41
2022/03/06 07:13:24;;;;;;;25.50;17.58;;;0.00;99.90;;;;;;5077254;28;20114;-38
2022/03/06 07:15:50;;;;;;;25.27;18.23;;;0.00;99.90;;;;;;5068687;28;20013;-41
2022/03/06 07:18:15;;;;;;;25.95;18.75;;;0.00;99.90;;;;;;5078700;28;20166;-41
2022/03/06 07:20:41;;;;;;;24.45;17.65;;;0.10;99.90;;;;;;5068496;28;20026;-41
2022/03/06 07:23:07;;;;;;;23.52;17.15;;;0.10;99.90;;;;;;5079102;28;20358;-41
2022/03/06 07:25:32;;;;;;;25.17;16.88;;;0.10;99.90;;;;;;5066572;28;20112;-40
2022/03/06 07:27:58;;;;;;;22.27;16.33;;;0.20;99.90;;;;;;5080283;28;20068;-42
2022/03/06 07:30:23;;;;;;;22.08;15.75;;;0.20;99.90;;;;;;5068025;28;20024;-41
2022/03/06 07:32:51;;;;;;;27.27;17.35;;;0.20;99.90;;;;;;5078950;28;20024;-44
2022/03/06 07:35:18;;;;;;;22.45;15.77;;;0.30;99.90;;;;;;5067494;28;20111;-41
2022/03/06 07:37:43;;;;;;;24.35;18.27;;;0.30;99.90;;;;;;5077236;28;20460;-42
2022/03/06 07:40:11;;;;;;;25.30;17.55;;;0.30;99.90;;;;;;5069111;28;20035;-41
2022/03/06 07:42:37;;;;;;;23.25;16.48;;;0.40;99.90;;;;;;5074889;28;20104;-41
2022/03/06 07:45:04;;;;;;;23.13;16.05;;;0.40;99.90;;;;;;5070385;28;20098;-41
2022/03/06 07:47:30;;;;;;;23.52;17.15;;;0.50;99.90;;;;;;5072796;28;20032;-42
2022/03/06 07:49:56;;;;;;;23.73;16.95;;;0.50;99.90;;;;;;5071590;28;20028;-41
2022/03/06 07:52:21;;;;;;;28.98;18.17;;;0.60;99.90;;;;;;5069912;28;20024;-42
2022/03/06 07:54:47;;;;;;;22.35;16.80;;;0.60;99.90;;;;;;5075307;28;20135;-41
2022/03/06 07:57:12;;;;;;;21.58;15.43;;;0.70;99.90;;;;;;5068083;28;20086;-41
2022/03/06 07:59:38;;;;;;;26.00;16.00;;;0.70;99.90;;;;;;5076824;28;20043;-41
2022/03/06 08:02:04;;;;;;;23.10;15.18;;;0.80;99.90;;;;;;5067940;28;20056;-42
2022/03/06 08:04:29;;;;;;;18.35;14.55;;;0.80;99.90;;;;;;5078126;28;20029;-41
2022/03/06 08:06:55;;;;;;;22.85;15.02;;;0.80;99.90;;;;;;5066662;28;20032;-42
2022/03/06 08:09:20;;;;;;;25.48;15.68;;;0.90;99.90;;;;;;5079166;28;20032;-41
2022/03/06 08:11:46;;;;;;;21.40;15.27;;;0.90;99.90;;;;;;5066411;28;20024;-41
2022/03/06 08:14:12;;;;;;;19.52;14.80;;;1.00;99.90;;;;;;5078481;28;20032;-40
2022/03/06 08:16:38;;;;;;;18.73;13.63;;;1.10;99.90;;;;;;5066596;28;20404;-41
2022/03/06 08:19:04;;;;;;;18.90;13.80;;;1.10;99.90;;;;;;5077548;28;20040;-42
2022/03/06 08:21:30;;;;;;;18.73;13.77;;;1.20;99.90;;;;;;5067530;28;20101;-41
2022/03/06 08:23:55;;;;;;;21.38;15.07;;;1.20;99.90;;;;;;5074217;28;20378;-38
2022/03/06 08:26:23;;;;;;;18.50;14.60;;;1.30;99.90;;;;;;5071683;28;20079;-42
2022/03/06 08:28:49;;;;;;;17.70;12.77;;;1.30;99.90;;;;;;5070612;28;20391;-41
2022/03/06 08:31:15;;;;;;;19.33;12.55;;;1.40;99.90;;;;;;5073537;28;20391;-43
2022/03/06 08:33:40;;;;;;;17.23;13.45;;;1.40;99.90;;;;;;5068486;28;20029;-42
2022/03/06 08:36:06;;;;;;;15.70;11.82;;;1.50;99.90;;;;;;5075457;28;20041;-42
2022/03/06 08:38:31;;;;;;;16.75;12.50;;;1.50;99.90;;;;;;5066947;28;20345;-43
2022/03/06 08:40:57;;;;;;;19.02;13.70;;;1.60;99.90;;;;;;5077711;28;20029;-42
2022/03/06 08:43:22;;;;;;;17.00;12.32;;;1.60;99.90;;;;;;5067468;28;20093;-43
2022/03/06 08:45:48;;;;;;;15.98;12.10;;;1.70;99.90;;;;;;5076741;28;20024;-41
2022/03/06 08:48:14;;;;;;;16.50;11.85;;;1.70;99.90;;;;;;5066770;28;20075;-43
2022/03/06 08:50:39;;;;;;;15.25;11.80;;;1.80;99.90;;;;;;5072803;28;20025;-42
2022/03/06 08:53:06;;;;;;;13.13;10.93;;;1.90;99.90;;;;;;5086673;28;20127;-41
2022/03/06 08:55:32;;;;;;;15.20;11.02;;;1.90;99.90;;;;;;5072020;28;20044;-39
2022/03/06 08:57:57;;;;;;;16.45;11.57;;;1.90;99.90;;;;;;5066504;28;20044;-41
2022/03/06 09:00:23;;;;;;;17.23;12.48;;;2.00;99.90;;;;;;5076264;28;20452;-42
2022/03/06 09:02:48;;;;;;;17.60;11.57;;;2.10;99.90;;;;;;5067557;28;20364;-41
2022/03/06 09:05:14;;;;;;;15.35;11.43;;;2.20;99.90;;;;;;5073596;28;20079;-41
2022/03/06 09:07:40;;;;;;;15.48;11.10;;;2.20;99.90;;;;;;5070906;28;20043;-42
2022/03/06 09:10:06;;;;;;;15.77;10.93;;;2.20;99.90;;;;;;5069536;28;20111;-40
2022/03/06 09:12:31;;;;;;;15.43;11.43;;;2.30;99.90;;;;;;5072843;28;20056;-42
2022/03/06 09:14:58;;;;;;;17.45;10.57;;;2.40;99.90;;;;;;5067490;28;20051;-41
2022/03/06 09:17:24;;;;;;;12.65;9.98;;;2.50;99.90;;;;;;5075957;28;20187;-41
2022/03/06 09:19:50;;;;;;;13.52;9.52;;;2.50;99.90;;;;;;5066502;28;20471;-44
2022/03/06 09:22:15;;;;;;;11.85;9.75;;;2.60;99.90;;;;;;5076508;28;20408;-42
2022/03/06 09:24:41;;;;;;;12.90;9.43;;;2.60;99.90;;;;;;5065089;28;20027;-40
2022/03/06 09:27:06;;;;;;;11.93;8.85;;;2.70;99.90;;;;;;5077758;28;20561;-37
2022/03/06 09:29:35;;;;;;;12.43;9.15;;;2.80;99.90;;;;;;5065119;28;20393;-40
2022/03/06 09:32:00;;;;;;;13.23;8.88;;;2.80;99.90;;;;;;5078123;28;20028;-42
2022/03/06 09:34:26;;;;;;;12.43;9.25;;;2.90;99.90;;;;;;5065646;28;20086;-41
2022/03/06 09:36:51;;;;;;;11.93;9.27;;;2.90;99.90;;;;;;5077400;28;20039;-42
2022/03/06 09:39:17;;;;;;;12.00;8.73;;;2.90;99.90;;;;;;5065717;28;20071;-40
2022/03/06 09:41:43;;;;;;;11.73;9.07;;;3.00;99.90;;;;;;5074214;28;20477;-41
2022/03/06 09:44:10;;;;;;;13.05;9.13;;;3.10;99.90;;;;;;5068393;28;20032;-40
2022/03/06 09:46:37;;;;;;;11.90;8.63;;;3.10;99.90;;;;;;5071113;28;20425;-40
2022/03/06 09:49:04;;;;;;;12.55;8.65;;;3.20;99.90;;;;;;5070160;28;20098;-43
2022/03/06 09:51:35;;;;;;;11.43;8.05;;;3.20;99.90;;;;;;5069160;28;20378;-40
2022/03/06 09:54:01;;;;;;;11.70;8.75;;;3.30;99.90;;;;;;5073046;28;20058;-39
2022/03/06 09:56:26;;;;;;;11.90;8.30;;;3.30;99.90;;;;;;5068132;28;20045;-42
2022/03/06 09:58:52;;;;;;;11.15;7.55;;;3.40;99.90;;;;;;5073299;28;20611;-42
2022/03/06 10:01:17;;;;;;;9.10;8.05;;;3.50;99.90;;;;;;5066669;28;20443;-42
2022/03/06 10:03:43;;;;;;;9.70;7.78;;;3.50;99.90;;;;;;5075864;28;20029;-41
2022/03/06 10:06:11;;;;;;;10.35;8.27;;;3.60;99.90;;;;;;5066335;28;20117;-40
2022/03/06 10:08:37;;;;;;;13.00;9.23;;;3.60;99.90;;;;;;5076204;28;20071;-42
2022/03/06 10:11:07;;;;;;;11.80;7.90;;;3.70;99.90;;;;;;5065123;28;20079;-41
2022/03/06 10:13:36;;;;;;;9.77;7.65;;;3.80;99.90;;;;;;5071402;28;20032;-42
2022/03/06 10:16:19;;;;;;;9.23;7.43;;;3.90;99.90;;;;;;5086189;28;20510;-42
2022/03/06 10:18:45;;;;;;;9.75;7.85;;;3.90;99.90;;;;;;5072422;28;20448;-41
2022/03/06 10:21:15;;;;;;;9.10;7.88;;;4.00;99.90;;;;;;5084714;28;20480;-42
2022/03/06 10:23:42;;;;;;;9.55;7.18;;;4.10;99.90;;;;;;5072285;28;20025;-40
2022/03/06 10:26:13;;;;;;;12.05;7.68;;;4.10;99.90;;;;;;5089408;28;20035;-41
2022/03/06 10:28:57;;;;;;;10.30;8.17;;;4.20;99.90;;;;;;5074859;28;20028;-40
2022/03/06 10:31:25;;;;;;;8.70;7.25;;;4.20;99.90;;;;;;5089410;28;20185;-42
2022/03/06 10:34:04;;;;;;;9.68;7.85;;;4.30;99.90;;;;;;5074769;28;20506;-42
2022/03/06 10:36:34;;;;;;;10.85;8.30;;;4.30;99.90;;;;;;5088625;28;20564;-41
2022/03/06 10:39:00;;;;;;;9.82;7.70;;;4.40;99.90;;;;;;5075741;28;20029;-42
2022/03/06 10:41:38;;;;;;;12.25;7.70;;;4.40;99.90;;;;;;5088419;28;20452;-41
2022/03/06 10:44:04;;;;;;;11.02;7.35;;;4.50;99.90;;;;;;5076570;28;20079;-44
2022/03/06 10:46:33;;;;;;;10.18;7.95;;;4.50;99.90;;;;;;5087385;28;20048;-41
2022/03/06 10:49:07;;;;;;;8.75;7.43;;;4.60;99.90;;;;;;5078262;28;20059;-42
2022/03/06 10:51:41;;;;;;;9.43;7.28;;;4.70;99.90;;;;;;5086702;28;20044;-41
2022/03/06 10:54:07;;;;;;;8.55;6.95;;;4.70;99.80;;;;;;5079014;28;20109;-41
2022/03/06 10:56:33;;;;;;;9.25;6.75;;;4.80;99.70;;;;;;5084150;28;20044;-40
2022/03/06 10:58:59;;;;;;;10.27;6.93;;;4.80;99.10;;;;;;5081133;28;20537;-40
2022/03/06 11:01:25;;;;;;;9.27;6.55;;;4.80;99.00;;;;;;5082953;28;20034;-39
2022/03/06 11:03:51;;;;;;;7.32;6.15;;;4.90;99.10;;;;;;5082940;28;20020;-41
2022/03/06 11:06:20;;;;;;;9.43;7.63;;;4.90;98.90;;;;;;5080285;28;20436;-42
2022/03/06 11:08:45;;;;;;;8.38;7.05;;;5.00;98.80;;;;;;5085810;28;20514;-41
2022/03/06 11:11:12;;;;;;;10.65;7.97;;;5.00;98.00;;;;;;5077185;28;20052;-39
2022/03/06 11:13:38;;;;;;;8.57;7.60;;;5.10;97.10;;;;;;5086149;28;20024;-43
2022/03/06 11:16:05;;;;;;;11.30;7.10;;;5.20;96.90;;;;;;5076750;28;20012;-39
2022/03/06 11:18:31;;;;;;;10.32;7.05;;;5.30;96.90;;;;;;5087134;28;20100;-40
2022/03/06 11:21:00;;;;;;;8.23;6.20;;;5.30;96.80;;;;;;5076580;28;20034;-40
2022/03/06 11:23:36;;;;;;;8.45;6.82;;;5.40;96.70;;;;;;5087580;28;20468;-42
2022/03/06 11:26:34;;;;;;;9.30;7.43;;;5.40;96.60;;;;;;5075107;28;20047;-39
2022/03/06 11:29:18;;;;;;;9.40;7.65;;;5.50;96.10;;;;;;5068880;28;20083;-40
2022/03/06 11:31:49;;;;;;;9.50;6.88;;;5.60;95.90;;;;;;5078234;28;20036;-42
2022/03/06 11:34:27;;;;;;;8.93;7.50;;;5.60;95.50;;;;;;5069316;28;20048;-42
2022/03/06 11:36:54;;;;;;;9.85;7.20;;;5.50;95.20;;;;;;5077195;28;20020;-42
2022/03/06 11:39:29;;;;;;;10.65;7.68;;;5.60;94.90;;;;;;5068375;28;20028;-40
2022/03/06 11:41:55;;;;;;;8.77;7.07;;;5.50;94.90;;;;;;5079067;28;20028;-40
2022/03/06 11:44:33;;;;;;;11.20;7.60;;;5.50;94.50;;;;;;5067428;28;20592;-42
2022/03/06 11:47:00;;;;;;;10.15;6.88;;;5.50;94.60;;;;;;5078303;28;20111;-41
2022/03/06 11:49:34;;;;;;;8.73;6.90;;;5.50;94.40;;;;;;5067532;28;20402;-42
2022/03/06 11:52:22;;;;;;;8.63;6.95;;;5.50;94.50;;;;;;5075061;28;20106;-40
2022/03/06 11:54:48;;;;;;;9.05;7.47;;;5.60;94.40;;;;;;5084977;28;20044;-43
2022/03/06 11:57:38;;;;;;;10.85;8.40;;;5.70;94.10;;;;;;5076210;28;20039;-42
2022/03/06 12:00:24;;;;;;;8.75;7.22;;;5.80;93.20;;;;;;5082147;28;20238;-41
2022/03/06 12:02:55;;;;;;;10.07;7.50;;;5.90;93.30;;;;;;5074010;28;20518;-42
2022/03/06 12:05:22;;;;;;;10.25;8.27;;;6.00;93.20;;;;;;5083974;28;20382;-43
2022/03/06 12:07:50;;;;;;;9.05;7.45;;;6.10;92.70;;;;;;5074608;28;20709;-41
2022/03/06 12:10:17;;;;;;;8.13;6.90;;;6.10;92.20;;;;;;5085226;28;20731;-41
2022/03/06 12:12:43;;;;;;;9.63;7.43;;;6.10;92.40;;;;;;5076194;28;20028;-42
2022/03/06 12:15:23;;;;;;;9.15;7.57;;;6.10;92.10;;;;;;5066123;28;20027;-42
2022/03/06 12:17:49;;;;;;;9.70;8.23;;;6.20;92.00;;;;;;5073993;28;20024;-42
2022/03/06 12:20:22;;;;;;;11.70;8.60;;;6.20;91.80;;;;;;5085729;28;20028;-42
2022/03/06 12:22:54;;;;;;;9.48;7.70;;;6.20;91.10;;;;;;5073037;28;20040;-40
2022/03/06 12:25:25;;;;;;;8.43;7.40;;;6.20;90.80;;;;;;5085741;28;20024;-41
2022/03/06 12:28:08;;;;;;;9.68;7.63;;;6.10;91.00;;;;;;5071889;28;20455;-42
2022/03/06 12:30:35;;;;;;;10.13;7.55;;;6.00;91.00;;;;;;5085548;28;20487;-42
2022/03/06 12:33:38;;;;;;;10.32;7.88;;;6.00;91.10;;;;;;5073660;28;20024;-39
2022/03/06 12:36:14;;;;;;;8.98;7.80;;;6.00;91.10;;;;;;5084640;28;20028;-41
2022/03/06 12:38:40;;;;;;;9.38;7.40;;;6.10;91.00;;;;;;5076572;28;20044;-41
2022/03/06 12:41:06;;;;;;;9.27;7.60;;;6.10;90.80;;;;;;5065916;28;20033;-40